sensor_id;sensor_type;location;lat;lon;timestamp;P1;durP1;ratioP1;P2;durP2;ratioP2
39218;SDS011;24934;52.752;6.964;2023-06-26T00:00:29;14.00;;;12.40;;
39218;SDS011;24934;52.752;6.964;2023-06-26T00:02:57;14.02;;;12.68;;
39218;SDS011;24934;52.752;6.964;2023-06-26T00:05:23;14.68;;;13.15;;
39218;SDS011;24934;52.752;6.964;2023-06-26T00:07:49;14.52;;;13.13;;
39218;SDS011;24934;52.752;6.964;2023-06-26T00:10:14;14.82;;;13.43;;
39218;SDS011;24934;52.752;6.964;2023-06-26T00:12:40;15.93;;;13.95;;
39218;SDS011;24934;52.752;6.964;2023-06-26T00:15:06;15.95;;;14.00;;
39218;SDS011;24934;52.752;6.964;2023-06-26T00:17:33;14.73;;;13.23;;
39218;SDS011;24934;52.752;6.964;2023-06-26T00:20:02;14.50;;;13.07;;
39218;SDS011;24934;52.752;6.964;2023-06-26T00:22:28;14.57;;;13.07;;
39218;SDS011;24934;52.752;6.964;2023-06-26T00:24:54;15.73;;;13.02;;
39218;SDS011;24934;52.752;6.964;2023-06-26T00:27:20;14.38;;;12.93;;
39218;SDS011;24934;52.752;6.964;2023-06-26T00:29:45;14.52;;;13.13;;
39218;SDS011;24934;52.752;6.964;2023-06-26T00:32:14;14.88;;;13.38;;
39218;SDS011;24934;52.752;6.964;2023-06-26T00:34:42;14.90;;;13.35;;
39218;SDS011;24934;52.752;6.964;2023-06-26T00:37:08;14.52;;;13.15;;
39218;SDS011;24934;52.752;6.964;2023-06-26T00:39:36;14.88;;;13.38;;
39218;SDS011;24934;52.752;6.964;2023-06-26T00:42:01;14.90;;;13.40;;
39218;SDS011;24934;52.752;6.964;2023-06-26T00:44:27;14.75;;;13.35;;
39218;SDS011;24934;52.752;6.964;2023-06-26T00:46:55;14.73;;;13.32;;
39218;SDS011;24934;52.752;6.964;2023-06-26T00:49:21;16.02;;;14.25;;
39218;SDS011;24934;52.752;6.964;2023-06-26T00:51:48;15.10;;;13.60;;
39218;SDS011;24934;52.752;6.964;2023-06-26T00:54:14;15.15;;;13.65;;
39218;SDS011;24934;52.752;6.964;2023-06-26T00:56:45;15.25;;;13.75;;
39218;SDS011;24934;52.752;6.964;2023-06-26T00:59:11;14.13;;;12.70;;
39218;SDS011;24934;52.752;6.964;2023-06-26T01:01:37;15.02;;;13.52;;
39218;SDS011;24934;52.752;6.964;2023-06-26T01:04:02;15.23;;;12.43;;
39218;SDS011;24934;52.752;6.964;2023-06-26T01:06:28;14.50;;;13.10;;
39218;SDS011;24934;52.752;6.964;2023-06-26T01:08:57;13.57;;;12.27;;
39218;SDS011;24934;52.752;6.964;2023-06-26T01:11:23;14.10;;;12.70;;
39218;SDS011;24934;52.752;6.964;2023-06-26T01:13:48;13.25;;;12.00;;
39218;SDS011;24934;52.752;6.964;2023-06-26T01:16:16;15.13;;;13.18;;
39218;SDS011;24934;52.752;6.964;2023-06-26T01:18:44;13.82;;;12.50;;
39218;SDS011;24934;52.752;6.964;2023-06-26T01:21:10;14.95;;;13.35;;
39218;SDS011;24934;52.752;6.964;2023-06-26T01:23:49;14.43;;;12.82;;
39218;SDS011;24934;52.752;6.964;2023-06-26T01:26:30;15.27;;;13.10;;
39218;SDS011;24934;52.752;6.964;2023-06-26T01:29:00;14.75;;;13.25;;
39218;SDS011;24934;52.752;6.964;2023-06-26T01:31:29;16.27;;;13.48;;
39218;SDS011;24934;52.752;6.964;2023-06-26T01:33:56;15.00;;;13.50;;
39218;SDS011;24934;52.752;6.964;2023-06-26T01:36:24;14.98;;;13.48;;
39218;SDS011;24934;52.752;6.964;2023-06-26T01:38:50;16.35;;;14.05;;
39218;SDS011;24934;52.752;6.964;2023-06-26T01:41:16;17.45;;;14.38;;
39218;SDS011;24934;52.752;6.964;2023-06-26T01:58:12;15.75;;;14.15;;
39218;SDS011;24934;52.752;6.964;2023-06-26T02:00:39;16.17;;;14.57;;
39218;SDS011;24934;52.752;6.964;2023-06-26T02:03:05;16.85;;;15.15;;
39218;SDS011;24934;52.752;6.964;2023-06-26T02:05:31;17.80;;;15.60;;
39218;SDS011;24934;52.752;6.964;2023-06-26T02:08:00;18.15;;;16.35;;
39218;SDS011;24934;52.752;6.964;2023-06-26T02:10:27;18.23;;;16.27;;
39218;SDS011;24934;52.752;6.964;2023-06-26T02:12:53;18.40;;;16.38;;
39218;SDS011;24934;52.752;6.964;2023-06-26T02:15:19;18.38;;;16.55;;
39218;SDS011;24934;52.752;6.964;2023-06-26T02:17:44;18.63;;;16.83;;
39218;SDS011;24934;52.752;6.964;2023-06-26T02:20:13;17.98;;;16.20;;
39218;SDS011;24934;52.752;6.964;2023-06-26T02:22:39;19.30;;;16.75;;
39218;SDS011;24934;52.752;6.964;2023-06-26T02:25:05;18.75;;;16.70;;
39218;SDS011;24934;52.752;6.964;2023-06-26T02:27:31;20.92;;;17.27;;
39218;SDS011;24934;52.752;6.964;2023-06-26T02:29:56;19.48;;;17.65;;
39218;SDS011;24934;52.752;6.964;2023-06-26T02:32:22;19.38;;;17.48;;
39218;SDS011;24934;52.752;6.964;2023-06-26T02:34:47;19.25;;;17.38;;
39218;SDS011;24934;52.752;6.964;2023-06-26T02:37:13;19.58;;;17.45;;
39218;SDS011;24934;52.752;6.964;2023-06-26T02:39:41;20.00;;;17.50;;
39218;SDS011;24934;52.752;6.964;2023-06-26T02:42:06;20.25;;;18.00;;
39218;SDS011;24934;52.752;6.964;2023-06-26T02:44:32;19.90;;;17.90;;
39218;SDS011;24934;52.752;6.964;2023-06-26T02:46:58;20.20;;;18.20;;
39218;SDS011;24934;52.752;6.964;2023-06-26T02:49:23;20.10;;;17.65;;
39218;SDS011;24934;52.752;6.964;2023-06-26T02:51:49;20.17;;;18.08;;
39218;SDS011;24934;52.752;6.964;2023-06-26T02:54:17;19.55;;;17.63;;
39218;SDS011;24934;52.752;6.964;2023-06-26T02:56:45;18.25;;;16.05;;
39218;SDS011;24934;52.752;6.964;2023-06-26T02:59:11;19.23;;;17.33;;
39218;SDS011;24934;52.752;6.964;2023-06-26T03:01:37;19.30;;;17.23;;
39218;SDS011;24934;52.752;6.964;2023-06-26T03:04:03;20.85;;;18.10;;
39218;SDS011;24934;52.752;6.964;2023-06-26T03:06:29;21.33;;;19.05;;
39218;SDS011;24934;52.752;6.964;2023-06-26T03:08:55;20.08;;;18.08;;
39218;SDS011;24934;52.752;6.964;2023-06-26T03:11:20;21.83;;;19.63;;
39218;SDS011;24934;52.752;6.964;2023-06-26T03:13:46;22.08;;;19.77;;
39218;SDS011;24934;52.752;6.964;2023-06-26T03:16:12;19.88;;;17.92;;
39218;SDS011;24934;52.752;6.964;2023-06-26T03:18:37;21.45;;;19.25;;
39218;SDS011;24934;52.752;6.964;2023-06-26T03:21:03;23.35;;;20.98;;
39218;SDS011;24934;52.752;6.964;2023-06-26T03:23:29;20.92;;;18.83;;
39218;SDS011;24934;52.752;6.964;2023-06-26T03:25:54;22.95;;;19.98;;
39218;SDS011;24934;52.752;6.964;2023-06-26T03:28:20;22.40;;;20.23;;
39218;SDS011;24934;52.752;6.964;2023-06-26T03:30:46;22.02;;;18.77;;
39218;SDS011;24934;52.752;6.964;2023-06-26T03:33:11;23.63;;;18.48;;
39218;SDS011;24934;52.752;6.964;2023-06-26T03:35:37;21.58;;;19.10;;
39218;SDS011;24934;52.752;6.964;2023-06-26T03:38:03;21.08;;;18.85;;
39218;SDS011;24934;52.752;6.964;2023-06-26T03:40:29;21.65;;;19.60;;
39218;SDS011;24934;52.752;6.964;2023-06-26T03:42:55;20.75;;;18.55;;
39218;SDS011;24934;52.752;6.964;2023-06-26T03:45:21;21.27;;;19.17;;
39218;SDS011;24934;52.752;6.964;2023-06-26T03:47:46;21.95;;;19.70;;
39218;SDS011;24934;52.752;6.964;2023-06-26T03:50:17;22.30;;;18.70;;
39218;SDS011;24934;52.752;6.964;2023-06-26T03:52:42;22.10;;;18.88;;
39218;SDS011;24934;52.752;6.964;2023-06-26T03:55:08;22.35;;;20.17;;
39218;SDS011;24934;52.752;6.964;2023-06-26T03:57:34;20.88;;;18.67;;
39218;SDS011;24934;52.752;6.964;2023-06-26T04:00:02;22.00;;;19.80;;
39218;SDS011;24934;52.752;6.964;2023-06-26T04:02:33;21.45;;;19.40;;
39218;SDS011;24934;52.752;6.964;2023-06-26T04:04:59;21.95;;;19.70;;
39218;SDS011;24934;52.752;6.964;2023-06-26T04:07:25;22.58;;;20.25;;
39218;SDS011;24934;52.752;6.964;2023-06-26T04:09:51;21.77;;;19.63;;
39218;SDS011;24934;52.752;6.964;2023-06-26T04:12:17;21.92;;;19.73;;
39218;SDS011;24934;52.752;6.964;2023-06-26T04:14:42;22.35;;;20.05;;
39218;SDS011;24934;52.752;6.964;2023-06-26T04:17:08;22.25;;;19.92;;
39218;SDS011;24934;52.752;6.964;2023-06-26T04:19:34;21.77;;;19.77;;
39218;SDS011;24934;52.752;6.964;2023-06-26T04:22:00;21.13;;;19.13;;
39218;SDS011;24934;52.752;6.964;2023-06-26T04:24:26;21.58;;;19.38;;
39218;SDS011;24934;52.752;6.964;2023-06-26T04:26:52;21.73;;;19.48;;
39218;SDS011;24934;52.752;6.964;2023-06-26T04:29:17;21.48;;;19.17;;
39218;SDS011;24934;52.752;6.964;2023-06-26T04:31:43;21.70;;;19.48;;
39218;SDS011;24934;52.752;6.964;2023-06-26T04:34:11;22.50;;;20.15;;
39218;SDS011;24934;52.752;6.964;2023-06-26T04:36:38;21.73;;;19.33;;
39218;SDS011;24934;52.752;6.964;2023-06-26T04:39:04;20.80;;;18.67;;
39218;SDS011;24934;52.752;6.964;2023-06-26T04:41:31;22.20;;;19.80;;
39218;SDS011;24934;52.752;6.964;2023-06-26T04:43:56;22.80;;;20.42;;
39218;SDS011;24934;52.752;6.964;2023-06-26T04:46:22;21.23;;;19.10;;
39218;SDS011;24934;52.752;6.964;2023-06-26T04:48:47;21.05;;;19.08;;
39218;SDS011;24934;52.752;6.964;2023-06-26T04:51:13;22.10;;;19.80;;
39218;SDS011;24934;52.752;6.964;2023-06-26T04:53:39;20.98;;;18.88;;
39218;SDS011;24934;52.752;6.964;2023-06-26T04:56:04;22.05;;;19.75;;
39218;SDS011;24934;52.752;6.964;2023-06-26T04:58:30;21.52;;;19.35;;
39218;SDS011;24934;52.752;6.964;2023-06-26T05:00:55;24.52;;;18.92;;
39218;SDS011;24934;52.752;6.964;2023-06-26T05:03:21;20.95;;;18.83;;
39218;SDS011;24934;52.752;6.964;2023-06-26T05:05:47;19.92;;;17.90;;
39218;SDS011;24934;52.752;6.964;2023-06-26T05:08:17;19.77;;;17.63;;
39218;SDS011;24934;52.752;6.964;2023-06-26T05:10:47;21.33;;;17.08;;
39218;SDS011;24934;52.752;6.964;2023-06-26T05:13:12;21.17;;;16.98;;
39218;SDS011;24934;52.752;6.964;2023-06-26T05:15:40;19.55;;;17.48;;
39218;SDS011;24934;52.752;6.964;2023-06-26T05:18:12;19.25;;;16.00;;
39218;SDS011;24934;52.752;6.964;2023-06-26T05:20:37;17.08;;;15.38;;
39218;SDS011;24934;52.752;6.964;2023-06-26T05:23:03;18.63;;;15.40;;
39218;SDS011;24934;52.752;6.964;2023-06-26T05:25:30;16.52;;;14.55;;
39218;SDS011;24934;52.752;6.964;2023-06-26T05:28:00;17.10;;;14.18;;
39218;SDS011;24934;52.752;6.964;2023-06-26T05:30:26;20.42;;;14.75;;
39218;SDS011;24934;52.752;6.964;2023-06-26T05:32:53;15.40;;;13.40;;
39218;SDS011;24934;52.752;6.964;2023-06-26T05:35:22;19.20;;;13.27;;
39218;SDS011;24934;52.752;6.964;2023-06-26T05:37:48;14.57;;;13.13;;
39218;SDS011;24934;52.752;6.964;2023-06-26T05:40:15;15.95;;;13.18;;
39218;SDS011;24934;52.752;6.964;2023-06-26T05:42:42;15.60;;;13.95;;
39218;SDS011;24934;52.752;6.964;2023-06-26T05:45:08;20.75;;;14.20;;
39218;SDS011;24934;52.752;6.964;2023-06-26T05:47:34;23.75;;;13.98;;
39218;SDS011;24934;52.752;6.964;2023-06-26T05:50:03;17.73;;;13.15;;
39218;SDS011;24934;52.752;6.964;2023-06-26T05:52:33;15.27;;;12.15;;
39218;SDS011;24934;52.752;6.964;2023-06-26T05:54:59;16.58;;;12.82;;
39218;SDS011;24934;52.752;6.964;2023-06-26T05:57:34;16.85;;;12.55;;
39218;SDS011;24934;52.752;6.964;2023-06-26T06:00:02;20.63;;;14.05;;
39218;SDS011;24934;52.752;6.964;2023-06-26T06:02:30;20.95;;;13.80;;
39218;SDS011;24934;52.752;6.964;2023-06-26T06:04:56;19.23;;;14.18;;
39218;SDS011;24934;52.752;6.964;2023-06-26T06:07:22;23.33;;;13.05;;
39218;SDS011;24934;52.752;6.964;2023-06-26T06:09:47;27.85;;;13.80;;
39218;SDS011;24934;52.752;6.964;2023-06-26T06:12:13;19.67;;;13.38;;
39218;SDS011;24934;52.752;6.964;2023-06-26T06:14:41;20.50;;;13.50;;
39218;SDS011;24934;52.752;6.964;2023-06-26T06:17:07;19.00;;;13.23;;
39218;SDS011;24934;52.752;6.964;2023-06-26T06:19:33;19.25;;;12.25;;
39218;SDS011;24934;52.752;6.964;2023-06-26T06:21:58;19.25;;;11.75;;
39218;SDS011;24934;52.752;6.964;2023-06-26T06:24:24;17.15;;;11.88;;
39218;SDS011;24934;52.752;6.964;2023-06-26T06:26:49;17.50;;;11.93;;
39218;SDS011;24934;52.752;6.964;2023-06-26T06:29:15;17.48;;;12.20;;
39218;SDS011;24934;52.752;6.964;2023-06-26T06:31:44;16.38;;;12.80;;
39218;SDS011;24934;52.752;6.964;2023-06-26T06:34:10;20.38;;;13.18;;
39218;SDS011;24934;52.752;6.964;2023-06-26T06:36:38;16.25;;;11.93;;
39218;SDS011;24934;52.752;6.964;2023-06-26T06:39:03;15.20;;;12.77;;
39218;SDS011;24934;52.752;6.964;2023-06-26T06:41:29;17.40;;;11.70;;
39218;SDS011;24934;52.752;6.964;2023-06-26T06:43:54;14.73;;;11.65;;
39218;SDS011;24934;52.752;6.964;2023-06-26T06:46:23;13.73;;;10.82;;
39218;SDS011;24934;52.752;6.964;2023-06-26T06:48:49;14.98;;;10.23;;
39218;SDS011;24934;52.752;6.964;2023-06-26T06:51:17;14.20;;;11.30;;
39218;SDS011;24934;52.752;6.964;2023-06-26T06:53:42;14.75;;;10.95;;
39218;SDS011;24934;52.752;6.964;2023-06-26T06:56:08;14.05;;;11.05;;
39218;SDS011;24934;52.752;6.964;2023-06-26T06:58:33;14.88;;;10.50;;
39218;SDS011;24934;52.752;6.964;2023-06-26T07:01:01;17.33;;;9.85;;
39218;SDS011;24934;52.752;6.964;2023-06-26T07:03:28;11.70;;;9.38;;
39218;SDS011;24934;52.752;6.964;2023-06-26T07:05:53;12.73;;;9.00;;
39218;SDS011;24934;52.752;6.964;2023-06-26T07:08:29;12.82;;;9.30;;
39218;SDS011;24934;52.752;6.964;2023-06-26T07:10:55;10.30;;;8.35;;
39218;SDS011;24934;52.752;6.964;2023-06-26T07:13:24;14.38;;;9.45;;
39218;SDS011;24934;52.752;6.964;2023-06-26T07:15:50;11.10;;;8.32;;
39218;SDS011;24934;52.752;6.964;2023-06-26T07:18:15;14.05;;;8.60;;
39218;SDS011;24934;52.752;6.964;2023-06-26T07:20:41;9.77;;;7.60;;
39218;SDS011;24934;52.752;6.964;2023-06-26T07:23:07;7.50;;;6.45;;
39218;SDS011;24934;52.752;6.964;2023-06-26T07:25:33;9.13;;;7.68;;
39218;SDS011;24934;52.752;6.964;2023-06-26T07:27:59;8.27;;;7.47;;
39218;SDS011;24934;52.752;6.964;2023-06-26T07:30:25;10.43;;;7.65;;
39218;SDS011;24934;52.752;6.964;2023-06-26T07:32:50;9.18;;;7.20;;
39218;SDS011;24934;52.752;6.964;2023-06-26T07:35:16;8.02;;;6.65;;
39218;SDS011;24934;52.752;6.964;2023-06-26T07:37:42;8.00;;;7.05;;
39218;SDS011;24934;52.752;6.964;2023-06-26T07:40:08;10.07;;;7.80;;
39218;SDS011;24934;52.752;6.964;2023-06-26T07:42:34;7.70;;;6.10;;
39218;SDS011;24934;52.752;6.964;2023-06-26T07:45:03;8.07;;;6.22;;
39218;SDS011;24934;52.752;6.964;2023-06-26T07:47:36;9.07;;;7.50;;
39218;SDS011;24934;52.752;6.964;2023-06-26T07:50:05;8.07;;;6.50;;
39218;SDS011;24934;52.752;6.964;2023-06-26T07:52:31;7.53;;;6.70;;
39218;SDS011;24934;52.752;6.964;2023-06-26T07:54:57;7.47;;;6.78;;
39218;SDS011;24934;52.752;6.964;2023-06-26T07:57:23;9.38;;;6.68;;
39218;SDS011;24934;52.752;6.964;2023-06-26T07:59:49;6.30;;;5.68;;
39218;SDS011;24934;52.752;6.964;2023-06-26T08:02:15;9.55;;;6.60;;
39218;SDS011;24934;52.752;6.964;2023-06-26T08:04:40;8.20;;;6.68;;
39218;SDS011;24934;52.752;6.964;2023-06-26T08:07:06;7.95;;;6.50;;
39218;SDS011;24934;52.752;6.964;2023-06-26T08:09:32;6.63;;;6.00;;
39218;SDS011;24934;52.752;6.964;2023-06-26T08:11:58;7.72;;;6.30;;
39218;SDS011;24934;52.752;6.964;2023-06-26T08:14:24;7.05;;;6.30;;
39218;SDS011;24934;52.752;6.964;2023-06-26T08:16:50;7.82;;;6.22;;
39218;SDS011;24934;52.752;6.964;2023-06-26T08:19:16;8.70;;;6.97;;
39218;SDS011;24934;52.752;6.964;2023-06-26T08:21:42;7.63;;;5.95;;
39218;SDS011;24934;52.752;6.964;2023-06-26T08:24:09;7.00;;;6.30;;
39218;SDS011;24934;52.752;6.964;2023-06-26T08:26:35;6.63;;;6.00;;
39218;SDS011;24934;52.752;6.964;2023-06-26T08:29:01;8.07;;;7.32;;
39218;SDS011;24934;52.752;6.964;2023-06-26T08:31:35;7.15;;;6.50;;
39218;SDS011;24934;52.752;6.964;2023-06-26T08:34:02;7.60;;;6.97;;
39218;SDS011;24934;52.752;6.964;2023-06-26T08:36:28;7.65;;;6.80;;
39218;SDS011;24934;52.752;6.964;2023-06-26T08:38:54;8.95;;;7.93;;
39218;SDS011;24934;52.752;6.964;2023-06-26T08:41:20;9.43;;;8.63;;
39218;SDS011;24934;52.752;6.964;2023-06-26T08:43:45;9.77;;;8.73;;
39218;SDS011;24934;52.752;6.964;2023-06-26T08:46:11;9.15;;;7.78;;
39218;SDS011;24934;52.752;6.964;2023-06-26T08:48:39;11.65;;;8.38;;
39218;SDS011;24934;52.752;6.964;2023-06-26T08:51:09;10.13;;;8.20;;
39218;SDS011;24934;52.752;6.964;2023-06-26T08:53:43;8.55;;;7.55;;
39218;SDS011;24934;52.752;6.964;2023-06-26T08:56:17;7.50;;;6.40;;
39218;SDS011;24934;52.752;6.964;2023-06-26T08:58:47;10.77;;;7.88;;
39218;SDS011;24934;52.752;6.964;2023-06-26T09:01:13;7.50;;;6.90;;
39218;SDS011;24934;52.752;6.964;2023-06-26T09:03:39;7.53;;;6.88;;
39218;SDS011;24934;52.752;6.964;2023-06-26T09:06:06;8.05;;;7.30;;
39218;SDS011;24934;52.752;6.964;2023-06-26T09:08:35;7.32;;;6.80;;
39218;SDS011;24934;52.752;6.964;2023-06-26T09:11:00;7.78;;;6.97;;
39218;SDS011;24934;52.752;6.964;2023-06-26T09:13:28;8.35;;;6.30;;
39218;SDS011;24934;52.752;6.964;2023-06-26T09:15:55;7.70;;;7.10;;
39218;SDS011;24934;52.752;6.964;2023-06-26T09:18:20;8.23;;;6.60;;
39218;SDS011;24934;52.752;6.964;2023-06-26T09:20:49;7.80;;;7.00;;
39218;SDS011;24934;52.752;6.964;2023-06-26T09:23:15;7.65;;;6.80;;
39218;SDS011;24934;52.752;6.964;2023-06-26T09:25:41;9.05;;;7.32;;
39218;SDS011;24934;52.752;6.964;2023-06-26T09:28:08;7.43;;;6.82;;
39218;SDS011;24934;52.752;6.964;2023-06-26T09:30:34;9.10;;;8.30;;
39218;SDS011;24934;52.752;6.964;2023-06-26T09:33:21;10.10;;;9.20;;
39218;SDS011;24934;52.752;6.964;2023-06-26T09:35:46;8.27;;;7.57;;
39218;SDS011;24934;52.752;6.964;2023-06-26T09:38:13;8.95;;;8.07;;
39218;SDS011;24934;52.752;6.964;2023-06-26T09:40:39;8.10;;;7.40;;
39218;SDS011;24934;52.752;6.964;2023-06-26T09:43:06;7.65;;;6.75;;
39218;SDS011;24934;52.752;6.964;2023-06-26T09:45:33;8.02;;;7.20;;
39218;SDS011;24934;52.752;6.964;2023-06-26T09:48:01;8.10;;;7.28;;
39218;SDS011;24934;52.752;6.964;2023-06-26T09:50:28;7.80;;;7.00;;
39218;SDS011;24934;52.752;6.964;2023-06-26T09:52:55;8.45;;;7.50;;
39218;SDS011;24934;52.752;6.964;2023-06-26T09:55:21;6.97;;;6.28;;
39218;SDS011;24934;52.752;6.964;2023-06-26T09:57:47;10.38;;;7.20;;
39218;SDS011;24934;52.752;6.964;2023-06-26T10:00:15;7.95;;;6.50;;
39218;SDS011;24934;52.752;6.964;2023-06-26T10:02:44;8.85;;;7.95;;
39218;SDS011;24934;52.752;6.964;2023-06-26T10:05:10;9.18;;;7.97;;
39218;SDS011;24934;52.752;6.964;2023-06-26T10:07:46;9.50;;;8.63;;
39218;SDS011;24934;52.752;6.964;2023-06-26T10:10:15;10.10;;;9.05;;
39218;SDS011;24934;52.752;6.964;2023-06-26T10:12:42;8.68;;;7.78;;
39218;SDS011;24934;52.752;6.964;2023-06-26T10:15:13;8.48;;;6.70;;
39218;SDS011;24934;52.752;6.964;2023-06-26T10:17:42;8.88;;;8.00;;
39218;SDS011;24934;52.752;6.964;2023-06-26T10:20:12;8.73;;;8.00;;
39218;SDS011;24934;52.752;6.964;2023-06-26T10:22:43;8.55;;;7.65;;
39218;SDS011;24934;52.752;6.964;2023-06-26T10:25:10;10.00;;;8.00;;
39218;SDS011;24934;52.752;6.964;2023-06-26T10:27:42;8.98;;;8.18;;
39218;SDS011;24934;52.752;6.964;2023-06-26T10:30:11;8.85;;;7.93;;
39218;SDS011;24934;52.752;6.964;2023-06-26T10:32:41;8.50;;;7.70;;
39218;SDS011;24934;52.752;6.964;2023-06-26T10:35:07;11.05;;;8.60;;
39218;SDS011;24934;52.752;6.964;2023-06-26T10:37:41;8.38;;;7.05;;
39218;SDS011;24934;52.752;6.964;2023-06-26T10:40:14;7.95;;;7.35;;
39218;SDS011;24934;52.752;6.964;2023-06-26T10:42:49;8.63;;;7.90;;
39218;SDS011;24934;52.752;6.964;2023-06-26T10:45:15;12.95;;;7.47;;
39218;SDS011;24934;52.752;6.964;2023-06-26T10:47:46;7.78;;;7.07;;
39218;SDS011;24934;52.752;6.964;2023-06-26T10:56:04;9.02;;;8.13;;
39218;SDS011;24934;52.752;6.964;2023-06-26T10:58:34;11.32;;;7.82;;
39218;SDS011;24934;52.752;6.964;2023-06-26T11:03:48;8.57;;;7.78;;
39218;SDS011;24934;52.752;6.964;2023-06-26T11:06:21;8.43;;;6.40;;
39218;SDS011;24934;52.752;6.964;2023-06-26T11:08:50;7.95;;;7.28;;
39218;SDS011;24934;52.752;6.964;2023-06-26T11:11:54;9.63;;;8.10;;
39218;SDS011;24934;52.752;6.964;2023-06-26T11:14:24;6.57;;;5.97;;
39218;SDS011;24934;52.752;6.964;2023-06-26T11:16:52;9.55;;;8.65;;
39218;SDS011;24934;52.752;6.964;2023-06-26T11:19:20;7.90;;;6.90;;
39218;SDS011;24934;52.752;6.964;2023-06-26T11:21:46;12.60;;;7.97;;
39218;SDS011;24934;52.752;6.964;2023-06-26T11:24:12;9.18;;;7.60;;
39218;SDS011;24934;52.752;6.964;2023-06-26T11:26:38;8.32;;;7.55;;
39218;SDS011;24934;52.752;6.964;2023-06-26T11:29:05;9.45;;;8.65;;
39218;SDS011;24934;52.752;6.964;2023-06-26T11:31:31;8.77;;;7.97;;
39218;SDS011;24934;52.752;6.964;2023-06-26T11:33:59;15.80;;;7.30;;
39218;SDS011;24934;52.752;6.964;2023-06-26T11:36:26;8.00;;;7.18;;
39218;SDS011;24934;52.752;6.964;2023-06-26T11:38:55;8.02;;;7.22;;
39218;SDS011;24934;52.752;6.964;2023-06-26T11:41:22;8.93;;;7.40;;
39218;SDS011;24934;52.752;6.964;2023-06-26T11:43:50;8.60;;;7.90;;
39218;SDS011;24934;52.752;6.964;2023-06-26T11:46:17;7.65;;;7.00;;
39218;SDS011;24934;52.752;6.964;2023-06-26T11:48:44;6.95;;;6.45;;
39218;SDS011;24934;52.752;6.964;2023-06-26T11:51:12;7.13;;;6.43;;
39218;SDS011;24934;52.752;6.964;2023-06-26T11:53:39;8.98;;;8.10;;
39218;SDS011;24934;52.752;6.964;2023-06-26T11:56:07;7.68;;;6.88;;
39218;SDS011;24934;52.752;6.964;2023-06-26T11:58:54;8.20;;;7.43;;
39218;SDS011;24934;52.752;6.964;2023-06-26T12:01:37;9.35;;;7.45;;
39218;SDS011;24934;52.752;6.964;2023-06-26T12:04:05;8.30;;;6.53;;
39218;SDS011;24934;52.752;6.964;2023-06-26T12:06:36;10.63;;;8.30;;
39218;SDS011;24934;52.752;6.964;2023-06-26T12:09:05;8.02;;;7.22;;
39218;SDS011;24934;52.752;6.964;2023-06-26T12:11:32;12.77;;;7.85;;
39218;SDS011;24934;52.752;6.964;2023-06-26T12:13:59;7.88;;;7.18;;
39218;SDS011;24934;52.752;6.964;2023-06-26T12:16:29;10.55;;;8.07;;
39218;SDS011;24934;52.752;6.964;2023-06-26T12:18:59;7.10;;;6.40;;
39218;SDS011;24934;52.752;6.964;2023-06-26T12:21:45;6.43;;;5.93;;
39218;SDS011;24934;52.752;6.964;2023-06-26T12:24:16;8.50;;;6.13;;
39218;SDS011;24934;52.752;6.964;2023-06-26T12:26:46;7.53;;;6.82;;
39218;SDS011;24934;52.752;6.964;2023-06-26T12:29:15;8.05;;;7.35;;
39218;SDS011;24934;52.752;6.964;2023-06-26T12:31:43;7.13;;;6.43;;
39218;SDS011;24934;52.752;6.964;2023-06-26T12:34:10;11.75;;;6.00;;
39218;SDS011;24934;52.752;6.964;2023-06-26T12:36:45;8.23;;;6.80;;
39218;SDS011;24934;52.752;6.964;2023-06-26T12:39:14;7.43;;;6.22;;
39218;SDS011;24934;52.752;6.964;2023-06-26T12:42:02;7.38;;;6.68;;
39218;SDS011;24934;52.752;6.964;2023-06-26T12:44:29;8.30;;;7.50;;
39218;SDS011;24934;52.752;6.964;2023-06-26T12:46:59;9.70;;;6.00;;
39218;SDS011;24934;52.752;6.964;2023-06-26T12:49:33;13.60;;;6.40;;
39218;SDS011;24934;52.752;6.964;2023-06-26T12:52:09;7.50;;;6.38;;
39218;SDS011;24934;52.752;6.964;2023-06-26T12:54:40;7.43;;;6.55;;
39218;SDS011;24934;52.752;6.964;2023-06-26T12:57:07;6.45;;;5.85;;
39218;SDS011;24934;52.752;6.964;2023-06-26T12:59:33;11.23;;;6.60;;
39218;SDS011;24934;52.752;6.964;2023-06-26T13:02:06;7.45;;;6.75;;
39218;SDS011;24934;52.752;6.964;2023-06-26T13:04:33;8.82;;;6.53;;
39218;SDS011;24934;52.752;6.964;2023-06-26T13:06:59;7.93;;;6.50;;
39218;SDS011;24934;52.752;6.964;2023-06-26T13:09:24;9.60;;;7.10;;
39218;SDS011;24934;52.752;6.964;2023-06-26T13:11:54;9.07;;;6.68;;
39218;SDS011;24934;52.752;6.964;2023-06-26T13:14:20;7.50;;;6.78;;
39218;SDS011;24934;52.752;6.964;2023-06-26T13:16:46;10.27;;;7.22;;
39218;SDS011;24934;52.752;6.964;2023-06-26T13:19:12;9.68;;;7.40;;
39218;SDS011;24934;52.752;6.964;2023-06-26T13:21:38;7.25;;;6.63;;
39218;SDS011;24934;52.752;6.964;2023-06-26T13:24:04;7.80;;;6.35;;
39218;SDS011;24934;52.752;6.964;2023-06-26T13:26:30;7.25;;;6.18;;
39218;SDS011;24934;52.752;6.964;2023-06-26T13:28:56;7.45;;;6.65;;
39218;SDS011;24934;52.752;6.964;2023-06-26T13:31:22;7.53;;;5.95;;
39218;SDS011;24934;52.752;6.964;2023-06-26T13:33:48;7.97;;;6.97;;
39218;SDS011;24934;52.752;6.964;2023-06-26T13:36:14;11.73;;;6.40;;
39218;SDS011;24934;52.752;6.964;2023-06-26T13:38:40;7.07;;;6.35;;
39218;SDS011;24934;52.752;6.964;2023-06-26T13:41:06;11.98;;;7.22;;
39218;SDS011;24934;52.752;6.964;2023-06-26T13:43:32;8.65;;;7.25;;
39218;SDS011;24934;52.752;6.964;2023-06-26T13:45:57;9.98;;;8.18;;
39218;SDS011;24934;52.752;6.964;2023-06-26T13:48:23;10.95;;;7.97;;
39218;SDS011;24934;52.752;6.964;2023-06-26T13:50:49;8.75;;;7.72;;
39218;SDS011;24934;52.752;6.964;2023-06-26T13:53:15;8.73;;;7.88;;
39218;SDS011;24934;52.752;6.964;2023-06-26T13:55:40;11.57;;;8.25;;
39218;SDS011;24934;52.752;6.964;2023-06-26T13:58:15;9.32;;;7.45;;
39218;SDS011;24934;52.752;6.964;2023-06-26T14:00:41;7.85;;;6.18;;
39218;SDS011;24934;52.752;6.964;2023-06-26T14:03:09;9.52;;;7.13;;
39218;SDS011;24934;52.752;6.964;2023-06-26T14:05:38;7.93;;;7.13;;
39218;SDS011;24934;52.752;6.964;2023-06-26T14:08:05;8.07;;;7.25;;
39218;SDS011;24934;52.752;6.964;2023-06-26T14:10:32;7.75;;;7.07;;
39218;SDS011;24934;52.752;6.964;2023-06-26T14:12:58;7.30;;;6.60;;
39218;SDS011;24934;52.752;6.964;2023-06-26T14:15:30;7.90;;;7.10;;
39218;SDS011;24934;52.752;6.964;2023-06-26T14:17:56;10.40;;;8.25;;
39218;SDS011;24934;52.752;6.964;2023-06-26T14:20:22;8.90;;;8.00;;
39218;SDS011;24934;52.752;6.964;2023-06-26T14:22:48;7.43;;;6.72;;
39218;SDS011;24934;52.752;6.964;2023-06-26T14:25:17;10.18;;;6.40;;
39218;SDS011;24934;52.752;6.964;2023-06-26T14:27:43;6.95;;;6.35;;
39218;SDS011;24934;52.752;6.964;2023-06-26T14:30:08;7.05;;;6.35;;
39218;SDS011;24934;52.752;6.964;2023-06-26T14:32:34;7.93;;;6.47;;
39218;SDS011;24934;52.752;6.964;2023-06-26T14:35:01;10.95;;;5.70;;
39218;SDS011;24934;52.752;6.964;2023-06-26T14:37:28;8.77;;;5.53;;
39218;SDS011;24934;52.752;6.964;2023-06-26T14:39:54;11.65;;;7.00;;
39218;SDS011;24934;52.752;6.964;2023-06-26T14:42:20;9.68;;;8.02;;
39218;SDS011;24934;52.752;6.964;2023-06-26T14:44:45;7.43;;;6.78;;
39218;SDS011;24934;52.752;6.964;2023-06-26T14:47:16;11.50;;;7.78;;
39218;SDS011;24934;52.752;6.964;2023-06-26T14:49:42;8.65;;;6.45;;
39218;SDS011;24934;52.752;6.964;2023-06-26T14:52:07;8.15;;;5.70;;
39218;SDS011;24934;52.752;6.964;2023-06-26T14:54:33;10.05;;;7.32;;
39218;SDS011;24934;52.752;6.964;2023-06-26T14:57:01;8.20;;;7.45;;